createdAt,value
2024-03-07T00:00:19.551Z,1.77
2024-03-07T00:02:49.666Z,1.74
2024-03-07T00:05:17.704Z,1.73
2024-03-07T00:07:45.345Z,1.70
2024-03-07T00:10:13.085Z,1.65
2024-03-07T00:12:41.792Z,1.60
2024-03-07T00:15:11.699Z,1.56
2024-03-07T00:17:39.429Z,1.49
2024-03-07T00:20:10.240Z,1.47
2024-03-07T00:22:37.498Z,1.44
2024-03-07T00:25:08.222Z,1.38
2024-03-07T00:27:36.851Z,1.36
2024-03-07T00:30:05.909Z,1.33
2024-03-07T00:32:37.237Z,1.29
2024-03-07T00:35:04.613Z,1.27
2024-03-07T00:37:34.730Z,1.22
2024-03-07T00:40:01.790Z,1.18
2024-03-07T00:42:29.976Z,1.12
2024-03-07T00:44:57.209Z,1.06
2024-03-07T00:47:24.380Z,1.05
2024-03-07T00:49:51.465Z,1.04
2024-03-07T00:52:18.883Z,1.03
2024-03-07T00:54:46.002Z,0.99
2024-03-07T00:57:13.081Z,0.97
2024-03-07T00:59:40.213Z,0.95
2024-03-07T01:02:08.084Z,0.96
2024-03-07T01:04:35.301Z,0.97
2024-03-07T01:07:02.571Z,0.91
2024-03-07T01:09:29.960Z,0.89
2024-03-07T01:11:57.743Z,0.86
2024-03-07T01:14:25.057Z,0.85
2024-03-07T01:16:52.245Z,0.81
2024-03-07T01:19:19.391Z,0.82
2024-03-07T01:21:46.462Z,0.77
2024-03-07T01:24:13.665Z,0.73
2024-03-07T01:26:40.783Z,0.69
2024-03-07T01:29:08.460Z,0.65
2024-03-07T01:31:35.802Z,0.68
2024-03-07T01:34:02.891Z,0.62
2024-03-07T01:36:31.271Z,0.64
2024-03-07T01:38:58.440Z,0.66
2024-03-07T01:41:25.692Z,0.73
2024-03-07T01:43:52.802Z,0.68
2024-03-07T01:46:20.700Z,0.65
2024-03-07T01:48:49.125Z,0.64
2024-03-07T01:51:16.398Z,0.60
2024-03-07T01:53:43.809Z,0.58
2024-03-07T01:56:11.285Z,0.53
2024-03-07T01:58:38.409Z,0.56
2024-03-07T02:01:06.176Z,0.53
2024-03-07T02:03:33.374Z,0.49
2024-03-07T02:06:01.145Z,0.46
2024-03-07T02:08:28.304Z,0.52
2024-03-07T02:10:55.454Z,0.50
2024-03-07T02:13:22.638Z,0.51
2024-03-07T02:15:49.753Z,0.47
2024-03-07T02:18:16.968Z,0.39
2024-03-07T02:20:46.048Z,0.44
2024-03-07T02:23:13.527Z,0.45
2024-03-07T02:25:40.610Z,0.49
2024-03-07T02:28:07.744Z,0.49
2024-03-07T02:30:34.800Z,0.58
2024-03-07T02:33:08.200Z,0.56
2024-03-07T02:35:39.289Z,0.59
2024-03-07T02:38:06.586Z,0.58
2024-03-07T02:40:33.798Z,0.63
2024-03-07T02:43:01.192Z,0.76
2024-03-07T02:45:28.325Z,0.77
2024-03-07T02:47:55.887Z,0.69
2024-03-07T02:50:23.712Z,0.60
2024-03-07T02:52:51.545Z,0.59
2024-03-07T02:55:33.280Z,0.55
2024-03-07T02:58:00.441Z,0.54
2024-03-07T03:00:28.150Z,0.55
2024-03-07T03:02:57.594Z,0.55
2024-03-07T03:05:25.543Z,0.56
2024-03-07T03:07:55.636Z,0.47
2024-03-07T03:10:30.741Z,0.47
2024-03-07T03:13:00.202Z,0.47
2024-03-07T03:15:27.644Z,0.52
2024-03-07T03:17:54.999Z,0.52
2024-03-07T03:20:35.226Z,0.42
2024-03-07T03:23:15.056Z,0.43
2024-03-07T03:25:49.641Z,0.34
2024-03-07T03:28:17.922Z,0.34
2024-03-07T03:30:45.511Z,0.26
2024-03-07T03:33:12.969Z,0.25
2024-03-07T03:35:40.958Z,0.28
2024-03-07T03:38:08.696Z,0.36
2024-03-07T03:40:36.045Z,0.36
2024-03-07T03:43:03.364Z,0.32
2024-03-07T03:45:30.572Z,0.36
2024-03-07T03:47:57.941Z,0.37
2024-03-07T03:50:25.236Z,0.37
2024-03-07T03:52:52.873Z,0.45
2024-03-07T03:55:20.345Z,0.35
2024-03-07T03:57:50.943Z,0.34
2024-03-07T04:00:18.730Z,0.41
2024-03-07T04:02:49.604Z,0.36
2024-03-07T04:05:18.112Z,0.39
2024-03-07T04:07:45.719Z,0.34
2024-03-07T04:10:13.262Z,0.31
2024-03-07T04:12:41.357Z,0.18
2024-03-07T04:15:12.071Z,0.22
2024-03-07T04:17:39.689Z,0.30
2024-03-07T04:20:07.562Z,0.20
2024-03-07T04:22:35.118Z,0.14
2024-03-07T04:25:02.574Z,0.13
2024-03-07T04:27:30.281Z,0.21
2024-03-07T04:29:57.657Z,0.19
2024-03-07T04:32:25.024Z,0.07
2024-03-07T04:34:52.198Z,0.02
2024-03-07T04:37:19.332Z,0.06
2024-03-07T04:39:47.015Z,0.03
2024-03-07T04:42:14.814Z,-0.02
2024-03-07T04:44:42.000Z,-0.02
2024-03-07T04:47:09.140Z,0.11
2024-03-07T04:49:36.245Z,0.09
2024-03-07T04:52:04.378Z,0.10
2024-03-07T04:54:32.946Z,0.11
2024-03-07T04:57:00.196Z,0.09
2024-03-07T04:59:27.466Z,0.16
2024-03-07T05:01:54.595Z,0.15
2024-03-07T05:04:21.682Z,0.14
2024-03-07T05:06:49.338Z,0.27
2024-03-07T05:09:27.317Z,0.23
2024-03-07T05:11:55.157Z,0.24
2024-03-07T05:14:28.986Z,0.17
2024-03-07T05:17:09.688Z,0.12
2024-03-07T05:19:39.613Z,0.17
2024-03-07T05:22:06.683Z,0.09
2024-03-07T05:24:35.170Z,0.13
2024-03-07T05:27:02.657Z,0.12
2024-03-07T05:29:30.015Z,0.07
2024-03-07T05:32:17.185Z,0.05
2024-03-07T05:34:44.546Z,0.21
2024-03-07T05:37:11.619Z,0.28
2024-03-07T05:39:38.688Z,0.39
2024-03-07T05:42:07.964Z,0.43
2024-03-07T05:44:35.139Z,0.28
2024-03-07T05:47:02.222Z,0.17
2024-03-07T05:49:32.409Z,0.10
2024-03-07T05:51:59.567Z,0.14
2024-03-07T05:54:26.835Z,0.09
2024-03-07T05:56:53.916Z,0.22
2024-03-07T05:59:22.255Z,0.14
2024-03-07T06:01:49.551Z,0.15
2024-03-07T06:04:16.609Z,0.13
2024-03-07T06:06:44.029Z,0.18
2024-03-07T06:09:11.188Z,0.27
2024-03-07T06:11:38.953Z,0.34
2024-03-07T06:14:06.855Z,0.34
2024-03-07T06:16:36.077Z,0.33
2024-03-07T06:19:11.296Z,0.32
2024-03-07T06:21:43.331Z,0.27
2024-03-07T06:24:12.408Z,0.35
2024-03-07T06:26:46.829Z,0.34
2024-03-07T06:29:15.467Z,0.34
2024-03-07T06:31:43.039Z,0.36
2024-03-07T06:34:10.589Z,0.40
2024-03-07T06:36:37.932Z,0.46
2024-03-07T06:39:08.376Z,0.59
2024-03-07T06:41:35.669Z,0.72
2024-03-07T06:44:03.682Z,0.74
2024-03-07T06:46:30.916Z,0.87
2024-03-07T06:48:58.135Z,1.01
2024-03-07T06:51:26.207Z,1.07
2024-03-07T06:53:53.760Z,1.24
2024-03-07T06:56:20.985Z,1.33
2024-03-07T06:58:49.393Z,1.41
2024-03-07T07:01:17.371Z,1.44
2024-03-07T07:03:45.050Z,1.52
2024-03-07T07:06:12.554Z,1.67
2024-03-07T07:08:39.877Z,1.73
2024-03-07T07:11:07.219Z,1.77
2024-03-07T07:13:34.427Z,1.89
2024-03-07T07:16:02.499Z,1.79
2024-03-07T07:18:30.442Z,1.75
2024-03-07T07:20:59.454Z,1.76
2024-03-07T07:23:27.901Z,1.73
2024-03-07T07:25:55.117Z,1.74
2024-03-07T07:28:22.444Z,1.61
2024-03-07T07:30:50.200Z,1.70
2024-03-07T07:33:17.512Z,1.65
2024-03-07T07:35:44.877Z,1.53
2024-03-07T07:38:14.007Z,1.36
2024-03-07T07:40:42.325Z,1.41
2024-03-07T07:43:09.419Z,1.42
2024-03-07T07:45:37.384Z,1.47
2024-03-07T07:48:05.150Z,1.50
2024-03-07T07:50:35.620Z,1.54
2024-03-07T07:53:06.373Z,1.58
2024-03-07T07:55:33.441Z,1.56
2024-03-07T07:58:00.978Z,1.59
2024-03-07T08:00:32.553Z,1.45
2024-03-07T08:03:04.728Z,1.48
2024-03-07T08:05:33.829Z,1.48
2024-03-07T08:08:05.641Z,1.51
2024-03-07T08:10:33.559Z,1.55
2024-03-07T08:13:01.998Z,1.58
2024-03-07T08:15:29.779Z,1.65
2024-03-07T08:17:57.450Z,1.69
2024-03-07T08:20:26.800Z,1.75
2024-03-07T08:22:55.206Z,1.80
2024-03-07T08:25:26.885Z,1.85
2024-03-07T08:27:54.934Z,1.84
2024-03-07T08:30:22.300Z,1.92
2024-03-07T08:32:50.714Z,1.97
2024-03-07T08:35:17.920Z,1.92
2024-03-07T08:37:54.803Z,1.92
2024-03-07T08:40:26.262Z,1.94
2024-03-07T08:42:55.598Z,1.91
2024-03-07T08:45:22.800Z,1.95
2024-03-07T08:47:51.710Z,1.98
2024-03-07T08:50:19.374Z,2.01
2024-03-07T08:52:47.310Z,2.00
2024-03-07T08:55:18.346Z,2.05
2024-03-07T08:57:50.240Z,2.03
2024-03-07T09:00:24.638Z,2.03
2024-03-07T09:02:56.007Z,2.03
2024-03-07T09:05:24.349Z,2.10
2024-03-07T09:07:52.450Z,2.10
2024-03-07T09:10:19.918Z,2.18
2024-03-07T09:12:49.748Z,2.16
2024-03-07T09:15:18.884Z,2.11
2024-03-07T09:17:48.354Z,2.16
2024-03-07T09:20:18.627Z,2.21
2024-03-07T09:22:46.055Z,2.26
2024-03-07T09:25:17.677Z,2.26
2024-03-07T09:27:45.192Z,2.34
2024-03-07T09:30:23.038Z,2.33
2024-03-07T09:32:50.552Z,2.29
2024-03-07T09:35:18.420Z,2.35
2024-03-07T09:37:46.765Z,2.43
2024-03-07T09:40:15.526Z,2.39
2024-03-07T09:42:53.938Z,2.45
2024-03-07T09:45:23.924Z,2.46
2024-03-07T09:47:53.555Z,2.45
2024-03-07T09:50:25.495Z,2.46
2024-03-07T09:52:54.887Z,2.50
2024-03-07T09:55:23.280Z,2.59
2024-03-07T09:57:51.832Z,2.60
2024-03-07T10:00:24.329Z,2.61
2024-03-07T10:02:54.549Z,2.61
2024-03-07T10:05:23.281Z,2.62
2024-03-07T10:07:51.607Z,2.62
2024-03-07T10:10:19.010Z,2.64
2024-03-07T10:12:46.100Z,2.67
2024-03-07T10:15:14.227Z,2.63
2024-03-07T10:17:44.544Z,2.62
2024-03-07T10:20:19.661Z,2.58
2024-03-07T10:22:47.288Z,2.61
2024-03-07T10:25:14.441Z,2.65
2024-03-07T10:27:43.185Z,2.65
2024-03-07T10:30:10.904Z,2.66
2024-03-07T10:32:38.301Z,2.72
2024-03-07T10:35:08.109Z,2.70
2024-03-07T10:37:36.566Z,2.74
2024-03-07T10:40:16.816Z,2.77
2024-03-07T10:42:46.763Z,2.74
2024-03-07T10:45:17.365Z,2.77
2024-03-07T10:47:46.885Z,2.84
2024-03-07T10:50:16.032Z,2.93
2024-03-07T10:52:59.913Z,3.01
2024-03-07T10:55:47.336Z,3.10
2024-03-07T10:58:32.673Z,3.07
2024-03-07T11:01:04.635Z,3.20
2024-03-07T11:03:36.266Z,3.27
2024-03-07T11:06:08.042Z,3.17
2024-03-07T11:08:36.253Z,3.20
2024-03-07T11:11:03.583Z,3.28
2024-03-07T11:13:34.725Z,3.37
2024-03-07T11:16:02.513Z,3.37
2024-03-07T11:18:29.792Z,3.48
2024-03-07T11:20:59.091Z,3.46
2024-03-07T11:23:30.910Z,3.53
2024-03-07T11:26:11.113Z,3.66
2024-03-07T11:28:39.540Z,3.62
2024-03-07T11:31:16.701Z,3.55
2024-03-07T11:34:05.804Z,3.56
2024-03-07T11:36:46.101Z,3.54
2024-03-07T11:39:37.330Z,3.55
2024-03-07T11:42:07.655Z,3.70
2024-03-07T11:44:35.885Z,3.67
2024-03-07T11:47:09.668Z,3.67
2024-03-07T11:49:39.861Z,3.69
2024-03-07T11:52:14.176Z,3.69
2024-03-07T11:54:47.174Z,3.73
2024-03-07T11:57:20.269Z,3.78
2024-03-07T11:59:53.283Z,3.90
2024-03-07T12:02:23.974Z,4.01
2024-03-07T12:04:51.319Z,4.05
2024-03-07T12:07:18.485Z,3.99
2024-03-07T12:09:51.528Z,3.98
2024-03-07T12:12:19.433Z,4.03
2024-03-07T12:14:47.024Z,4.06
2024-03-07T12:17:15.735Z,4.14
2024-03-07T12:19:43.163Z,4.20
2024-03-07T12:22:13.774Z,4.25
2024-03-07T12:24:43.552Z,4.30
2024-03-07T12:27:12.147Z,4.26
2024-03-07T12:29:40.825Z,4.30
2024-03-07T12:32:17.565Z,4.37
2024-03-07T12:34:46.910Z,4.45
2024-03-07T12:37:17.840Z,4.51
2024-03-07T12:39:49.907Z,4.46
2024-03-07T12:42:23.082Z,4.40
2024-03-07T12:44:51.498Z,4.45
2024-03-07T12:47:18.727Z,4.39
2024-03-07T12:49:46.483Z,4.40
2024-03-07T12:52:16.610Z,4.45
2024-03-07T12:54:43.993Z,4.49
2024-03-07T12:57:11.875Z,4.54
2024-03-07T12:59:41.309Z,4.62
2024-03-07T13:02:08.476Z,4.61
2024-03-07T13:04:35.781Z,4.55
2024-03-07T13:07:05.237Z,4.53
2024-03-07T13:09:33.215Z,4.48
2024-03-07T13:12:04.933Z,4.46
2024-03-07T13:14:34.355Z,4.58
2024-03-07T13:17:01.824Z,4.63
2024-03-07T13:19:29.364Z,4.67
2024-03-07T13:21:56.850Z,4.64
2024-03-07T13:24:24.680Z,4.62
2024-03-07T13:26:51.865Z,4.52
2024-03-07T13:29:25.577Z,4.60
2024-03-07T13:31:53.522Z,4.56
2024-03-07T13:34:20.771Z,4.54
2024-03-07T13:36:47.968Z,4.62
2024-03-07T13:39:15.384Z,4.61
2024-03-07T13:41:42.877Z,4.59
2024-03-07T13:44:10.159Z,4.63
2024-03-07T13:46:38.511Z,4.61
2024-03-07T13:49:08.892Z,4.62
2024-03-07T13:51:40.787Z,4.50
2024-03-07T13:54:27.526Z,4.55
2024-03-07T13:57:20.953Z,4.51
2024-03-07T14:00:15.713Z,4.57
2024-03-07T14:03:03.693Z,4.55
2024-03-07T14:05:38.005Z,4.51
2024-03-07T14:08:23.655Z,4.58
2024-03-07T14:11:07.697Z,4.57
2024-03-07T14:13:41.156Z,4.64
2024-03-07T14:16:27.136Z,4.66
2024-03-07T14:19:22.584Z,4.58
2024-03-07T14:22:12.790Z,4.54
2024-03-07T14:25:00.181Z,4.49
2024-03-07T14:27:50.389Z,4.41
2024-03-07T14:30:23.915Z,4.44
2024-03-07T14:32:56.359Z,4.45
2024-03-07T14:35:24.041Z,4.45
2024-03-07T14:37:54.063Z,4.48
2024-03-07T14:40:22.477Z,4.40
2024-03-07T14:42:50.333Z,4.33
2024-03-07T14:45:22.548Z,4.37
2024-03-07T14:47:51.039Z,4.41
2024-03-07T14:50:21.462Z,4.40
2024-03-07T14:52:49.273Z,4.30
2024-03-07T14:55:25.327Z,4.29
2024-03-07T14:57:52.603Z,4.28
2024-03-07T15:00:34.036Z,4.25
2024-03-07T15:03:03.519Z,4.23
2024-03-07T15:05:31.265Z,4.23
2024-03-07T15:07:59.034Z,4.20
2024-03-07T15:10:28.346Z,4.23
2024-03-07T15:12:55.458Z,4.23
2024-03-07T15:15:25.449Z,4.22
2024-03-07T15:17:52.829Z,4.21
2024-03-07T15:20:23.363Z,4.21
2024-03-07T15:22:52.019Z,4.11
2024-03-07T15:25:19.412Z,4.11
2024-03-07T15:27:49.325Z,4.15
2024-03-07T15:30:17.189Z,4.11
2024-03-07T15:32:45.104Z,4.06
2024-03-07T15:35:19.054Z,4.08
2024-03-07T15:37:47.692Z,4.10
2024-03-07T15:40:15.492Z,4.06
2024-03-07T15:42:44.014Z,4.05
2024-03-07T15:45:17.453Z,3.96
2024-03-07T15:47:45.267Z,3.92
2024-03-07T15:50:13.055Z,3.93
2024-03-07T15:52:42.876Z,3.87
2024-03-07T15:55:16.642Z,3.88
2024-03-07T15:57:44.590Z,3.86
2024-03-07T16:00:23.750Z,3.79
2024-03-07T16:02:54.347Z,3.83
2024-03-07T16:05:23.902Z,3.79
2024-03-07T16:07:54.370Z,3.80
2024-03-07T16:10:24.957Z,3.78
2024-03-07T16:12:52.692Z,3.75
2024-03-07T16:15:32.737Z,3.67
2024-03-07T16:18:07.490Z,3.60
2024-03-07T16:20:34.913Z,3.59
2024-03-07T16:23:05.349Z,3.59
2024-03-07T16:25:35.127Z,3.55
2024-03-07T16:28:02.747Z,3.54
2024-03-07T16:30:33.369Z,3.52
2024-03-07T16:33:01.609Z,3.50
2024-03-07T16:35:32.216Z,3.44
2024-03-07T16:38:00.072Z,3.43
2024-03-07T16:40:28.030Z,3.42
2024-03-07T16:42:57.817Z,3.38
2024-03-07T16:45:26.506Z,3.37
2024-03-07T16:47:54.601Z,3.35
2024-03-07T16:50:24.846Z,3.35
2024-03-07T16:52:55.235Z,3.34
2024-03-07T16:55:22.384Z,3.33
2024-03-07T16:57:50.298Z,3.26
2024-03-07T17:00:18.930Z,3.27
2024-03-07T17:02:46.263Z,3.24
2024-03-07T17:05:16.418Z,3.26
2024-03-07T17:07:44.297Z,3.22
2024-03-07T17:10:17.567Z,3.23
2024-03-07T17:12:46.278Z,3.24
2024-03-07T17:15:14.169Z,3.20
2024-03-07T17:17:43.717Z,3.17
2024-03-07T17:20:10.975Z,3.16
2024-03-07T17:22:38.042Z,3.14
2024-03-07T17:25:05.442Z,3.06
2024-03-07T17:27:32.904Z,3.04
2024-03-07T17:30:00.991Z,3.03
2024-03-07T17:32:31.273Z,3.01
2024-03-07T17:34:58.379Z,2.98
2024-03-07T17:37:25.446Z,2.94
2024-03-07T17:39:54.913Z,2.94
2024-03-07T17:42:22.248Z,2.92
2024-03-07T17:44:50.998Z,2.86
2024-03-07T17:47:18.105Z,2.85
2024-03-07T17:49:45.206Z,2.87
2024-03-07T17:52:15.091Z,2.84
2024-03-07T17:54:48.811Z,2.82
2024-03-07T17:57:16.626Z,2.78
2024-03-07T17:59:47.993Z,2.76
2024-03-07T18:02:18.080Z,2.75
2024-03-07T18:04:50.720Z,2.65
2024-03-07T18:07:18.995Z,2.62
2024-03-07T18:09:46.139Z,2.65
2024-03-07T18:12:15.422Z,2.59
2024-03-07T18:14:43.311Z,2.60
2024-03-07T18:17:10.527Z,2.59
2024-03-07T18:19:37.626Z,2.56
2024-03-07T18:22:07.688Z,2.45
2024-03-07T18:24:35.069Z,2.50
2024-03-07T18:27:11.477Z,2.49
2024-03-07T18:29:39.950Z,2.47
2024-03-07T18:32:10.845Z,2.43
2024-03-07T18:34:38.905Z,2.41
2024-03-07T18:37:06.026Z,2.38
2024-03-07T18:39:34.243Z,2.38
2024-03-07T18:42:01.434Z,2.28
2024-03-07T18:44:31.504Z,2.20
2024-03-07T18:46:58.620Z,2.15
2024-03-07T18:49:25.707Z,2.14
2024-03-07T18:51:55.159Z,2.12
2024-03-07T18:54:25.019Z,2.13
2024-03-07T18:56:52.515Z,2.11
2024-03-07T18:59:23.497Z,2.08
2024-03-07T19:01:51.384Z,2.10
2024-03-07T19:04:20.170Z,2.02
2024-03-07T19:06:47.265Z,1.99
2024-03-07T19:09:14.653Z,1.92
2024-03-07T19:11:46.247Z,1.87
2024-03-07T19:14:14.167Z,1.89
2024-03-07T19:16:52.062Z,1.84
2024-03-07T19:19:20.422Z,1.89
2024-03-07T19:21:47.687Z,1.76
2024-03-07T19:24:14.829Z,1.81
2024-03-07T19:26:42.443Z,1.79
2024-03-07T19:29:09.668Z,1.77
2024-03-07T19:31:37.107Z,1.77
2024-03-07T19:34:04.191Z,1.74
2024-03-07T19:36:31.268Z,1.68
2024-03-07T19:39:00.428Z,1.61
2024-03-07T19:41:28.405Z,1.68
2024-03-07T19:43:55.524Z,1.66
2024-03-07T19:46:24.173Z,1.72
2024-03-07T19:48:54.178Z,1.65
2024-03-07T19:51:25.968Z,1.60
2024-03-07T19:53:54.436Z,1.55
2024-03-07T19:56:22.579Z,1.58
2024-03-07T19:58:50.123Z,1.53
2024-03-07T20:01:17.208Z,1.48
2024-03-07T20:03:44.384Z,1.42
2024-03-07T20:06:11.777Z,1.42
2024-03-07T20:08:39.083Z,1.38
2024-03-07T20:11:06.404Z,1.28
2024-03-07T20:13:35.025Z,1.31
2024-03-07T20:16:02.444Z,1.29
2024-03-07T20:18:30.254Z,1.31
2024-03-07T20:20:58.429Z,1.25
2024-03-07T20:23:28.655Z,1.18
2024-03-07T20:25:55.869Z,1.19
2024-03-07T20:28:22.923Z,1.11
2024-03-07T20:30:51.774Z,1.18
2024-03-07T20:33:19.012Z,1.18
2024-03-07T20:35:47.237Z,1.19
2024-03-07T20:38:16.844Z,1.18
2024-03-07T20:40:44.161Z,1.12
2024-03-07T20:43:12.005Z,1.12
2024-03-07T20:45:39.777Z,1.11
2024-03-07T20:48:13.025Z,1.03
2024-03-07T20:50:41.737Z,1.01
2024-03-07T20:53:10.672Z,1.05
2024-03-07T20:55:40.725Z,1.00
2024-03-07T20:58:12.741Z,0.94
2024-03-07T21:00:46.601Z,0.94
2024-03-07T21:03:15.750Z,1.00
2024-03-07T21:05:45.137Z,1.03
2024-03-07T21:08:12.317Z,1.03
2024-03-07T21:10:40.014Z,0.96
2024-03-07T21:13:08.189Z,0.91
2024-03-07T21:15:35.686Z,0.87
2024-03-07T21:18:09.032Z,0.77
2024-03-07T21:20:37.088Z,0.75
2024-03-07T21:23:07.598Z,0.88
2024-03-07T21:25:36.632Z,0.64
2024-03-07T21:28:06.120Z,0.74
2024-03-07T21:30:33.447Z,0.69
2024-03-07T21:33:00.727Z,0.67
2024-03-07T21:35:27.931Z,0.72
2024-03-07T21:37:55.033Z,0.64
2024-03-07T21:40:24.078Z,0.71
2024-03-07T21:42:51.872Z,0.75
2024-03-07T21:45:19.382Z,0.77
2024-03-07T21:47:47.614Z,0.68
2024-03-07T21:50:15.698Z,0.64
2024-03-07T21:52:49.140Z,0.71
2024-03-07T21:55:22.087Z,0.67
2024-03-07T21:57:50.123Z,0.61
2024-03-07T22:00:20.714Z,0.58
2024-03-07T22:02:57.935Z,0.56
2024-03-07T22:05:29.719Z,0.47
2024-03-07T22:07:57.483Z,0.48
2024-03-07T22:10:24.850Z,0.51
2024-03-07T22:12:53.821Z,0.51
2024-03-07T22:15:22.430Z,0.51
2024-03-07T22:17:50.163Z,0.44
2024-03-07T22:20:22.026Z,0.46
2024-03-07T22:22:49.067Z,0.36
2024-03-07T22:25:16.803Z,0.35
2024-03-07T22:27:44.227Z,0.34
2024-03-07T22:30:14.848Z,0.37
2024-03-07T22:32:44.686Z,0.42
2024-03-07T22:35:12.128Z,0.39
2024-03-07T22:37:40.113Z,0.46
2024-03-07T22:40:15.309Z,0.43
2024-03-07T22:42:42.577Z,0.36
2024-03-07T22:45:11.908Z,0.42
2024-03-07T22:47:39.281Z,0.45
2024-03-07T22:50:22.090Z,0.47
2024-03-07T22:52:56.073Z,0.45
2024-03-07T22:55:24.167Z,0.49
2024-03-07T22:57:51.542Z,0.40
2024-03-07T23:00:29.972Z,0.41
2024-03-07T23:02:59.223Z,0.39
2024-03-07T23:05:28.535Z,0.42
2024-03-07T23:07:56.689Z,0.45
2024-03-07T23:10:23.967Z,0.45
2024-03-07T23:12:53.354Z,0.41
2024-03-07T23:15:25.491Z,0.36
2024-03-07T23:17:54.019Z,0.35
2024-03-07T23:20:22.120Z,0.33
2024-03-07T23:22:55.949Z,0.36
2024-03-07T23:25:23.957Z,0.35
2024-03-07T23:27:52.761Z,0.29
2024-03-07T23:30:22.365Z,0.23
2024-03-07T23:32:51.301Z,0.24
2024-03-07T23:35:18.960Z,0.27
2024-03-07T23:37:46.311Z,0.18
2024-03-07T23:40:16.968Z,0.09
2024-03-07T23:42:44.860Z,0.11
2024-03-07T23:45:16.044Z,0.12
2024-03-07T23:47:44.033Z,0.07
2024-03-07T23:50:14.433Z,0.04
2024-03-07T23:52:42.103Z,0.11
2024-03-07T23:55:12.343Z,0.10
2024-03-07T23:57:43.414Z,0.10
